sensor_id;sensor_type;location;lat;lon;timestamp;P1;durP1;ratioP1;P2;durP2;ratioP2
63801;SDS011;49949;43.060;25.624;2023-12-20T00:00:58;59.80;;;28.75;;
63801;SDS011;49949;43.060;25.624;2023-12-20T00:03:24;63.25;;;30.15;;
63801;SDS011;49949;43.060;25.624;2023-12-20T00:05:49;67.25;;;30.13;;
63801;SDS011;49949;43.060;25.624;2023-12-20T00:08:15;60.90;;;30.58;;
63801;SDS011;49949;43.060;25.624;2023-12-20T00:10:41;70.57;;;33.75;;
63801;SDS011;49949;43.060;25.624;2023-12-20T00:13:08;69.93;;;33.53;;
63801;SDS011;49949;43.060;25.624;2023-12-20T00:15:34;53.75;;;25.90;;
63801;SDS011;49949;43.060;25.624;2023-12-20T00:17:59;66.50;;;29.33;;
63801;SDS011;49949;43.060;25.624;2023-12-20T00:20:26;64.07;;;30.60;;
63801;SDS011;49949;43.060;25.624;2023-12-20T00:22:52;73.05;;;32.85;;
63801;SDS011;49949;43.060;25.624;2023-12-20T00:25:19;74.60;;;35.28;;
63801;SDS011;49949;43.060;25.624;2023-12-20T00:27:45;78.38;;;35.53;;
63801;SDS011;49949;43.060;25.624;2023-12-20T00:30:11;77.03;;;34.97;;
63801;SDS011;49949;43.060;25.624;2023-12-20T00:32:36;80.53;;;34.63;;
63801;SDS011;49949;43.060;25.624;2023-12-20T00:35:03;64.63;;;31.33;;
63801;SDS011;49949;43.060;25.624;2023-12-20T00:37:28;64.93;;;31.38;;
63801;SDS011;49949;43.060;25.624;2023-12-20T00:39:54;59.55;;;29.38;;
63801;SDS011;49949;43.060;25.624;2023-12-20T00:42:20;63.58;;;30.33;;
63801;SDS011;49949;43.060;25.624;2023-12-20T00:44:45;62.80;;;30.33;;
63801;SDS011;49949;43.060;25.624;2023-12-20T00:47:11;65.57;;;30.90;;
63801;SDS011;49949;43.060;25.624;2023-12-20T00:49:38;62.13;;;29.73;;
63801;SDS011;49949;43.060;25.624;2023-12-20T00:52:04;62.13;;;31.00;;
63801;SDS011;49949;43.060;25.624;2023-12-20T00:54:29;63.97;;;29.55;;
63801;SDS011;49949;43.060;25.624;2023-12-20T00:56:56;64.43;;;29.98;;
63801;SDS011;49949;43.060;25.624;2023-12-20T00:59:21;56.55;;;26.95;;
63801;SDS011;49949;43.060;25.624;2023-12-20T01:01:47;70.05;;;28.48;;
63801;SDS011;49949;43.060;25.624;2023-12-20T01:04:12;53.70;;;28.15;;
63801;SDS011;49949;43.060;25.624;2023-12-20T01:06:38;68.60;;;29.52;;
63801;SDS011;49949;43.060;25.624;2023-12-20T01:09:04;68.70;;;31.45;;
63801;SDS011;49949;43.060;25.624;2023-12-20T01:11:30;74.90;;;34.30;;
63801;SDS011;49949;43.060;25.624;2023-12-20T01:13:55;84.97;;;35.72;;
63801;SDS011;49949;43.060;25.624;2023-12-20T01:16:21;75.20;;;33.42;;
63801;SDS011;49949;43.060;25.624;2023-12-20T01:18:47;67.60;;;31.20;;
63801;SDS011;49949;43.060;25.624;2023-12-20T01:21:12;83.32;;;34.85;;
63801;SDS011;49949;43.060;25.624;2023-12-20T01:23:38;108.38;;;39.33;;
63801;SDS011;49949;43.060;25.624;2023-12-20T01:26:03;181.07;;;45.70;;
63801;SDS011;49949;43.060;25.624;2023-12-20T01:28:30;210.05;;;46.63;;
63801;SDS011;49949;43.060;25.624;2023-12-20T01:30:57;298.92;;;49.85;;
63801;SDS011;49949;43.060;25.624;2023-12-20T01:33:22;246.27;;;48.80;;
63801;SDS011;49949;43.060;25.624;2023-12-20T01:35:48;137.02;;;44.72;;
63801;SDS011;49949;43.060;25.624;2023-12-20T01:38:14;127.75;;;43.47;;
63801;SDS011;49949;43.060;25.624;2023-12-20T01:40:40;164.73;;;44.03;;
63801;SDS011;49949;43.060;25.624;2023-12-20T01:43:08;140.50;;;42.20;;
63801;SDS011;49949;43.060;25.624;2023-12-20T01:45:34;94.57;;;38.47;;
63801;SDS011;49949;43.060;25.624;2023-12-20T01:48:00;74.78;;;34.97;;
63801;SDS011;49949;43.060;25.624;2023-12-20T01:50:28;69.80;;;36.72;;
63801;SDS011;49949;43.060;25.624;2023-12-20T01:52:58;82.25;;;38.47;;
63801;SDS011;49949;43.060;25.624;2023-12-20T01:55:27;95.25;;;40.30;;
63801;SDS011;49949;43.060;25.624;2023-12-20T01:57:56;70.38;;;35.72;;
63801;SDS011;49949;43.060;25.624;2023-12-20T02:00:23;77.93;;;35.88;;
63801;SDS011;49949;43.060;25.624;2023-12-20T02:02:52;77.20;;;33.67;;
63801;SDS011;49949;43.060;25.624;2023-12-20T02:05:18;76.40;;;33.50;;
63801;SDS011;49949;43.060;25.624;2023-12-20T02:07:44;83.03;;;35.00;;
63801;SDS011;49949;43.060;25.624;2023-12-20T02:10:10;105.60;;;38.67;;
63801;SDS011;49949;43.060;25.624;2023-12-20T02:12:36;164.38;;;41.25;;
63801;SDS011;49949;43.060;25.624;2023-12-20T02:15:02;301.70;;;46.20;;
63801;SDS011;49949;43.060;25.624;2023-12-20T02:17:28;169.43;;;42.28;;
63801;SDS011;49949;43.060;25.624;2023-12-20T02:19:55;190.82;;;42.60;;
63801;SDS011;49949;43.060;25.624;2023-12-20T02:22:20;243.05;;;44.08;;
63801;SDS011;49949;43.060;25.624;2023-12-20T02:24:46;217.63;;;43.88;;
63801;SDS011;49949;43.060;25.624;2023-12-20T02:27:11;275.10;;;44.78;;
63801;SDS011;49949;43.060;25.624;2023-12-20T02:29:37;145.15;;;42.20;;
63801;SDS011;49949;43.060;25.624;2023-12-20T02:32:03;101.90;;;40.20;;
63801;SDS011;49949;43.060;25.624;2023-12-20T02:34:29;92.88;;;37.92;;
63801;SDS011;49949;43.060;25.624;2023-12-20T02:36:54;297.70;;;45.95;;
63801;SDS011;49949;43.060;25.624;2023-12-20T02:39:20;213.13;;;45.20;;
63801;SDS011;49949;43.060;25.624;2023-12-20T02:41:47;137.68;;;39.70;;
63801;SDS011;49949;43.060;25.624;2023-12-20T02:44:13;191.98;;;42.03;;
63801;SDS011;49949;43.060;25.624;2023-12-20T02:46:39;172.02;;;43.95;;
63801;SDS011;49949;43.060;25.624;2023-12-20T02:49:05;136.55;;;43.85;;
63801;SDS011;49949;43.060;25.624;2023-12-20T02:51:31;120.55;;;39.78;;
63801;SDS011;49949;43.060;25.624;2023-12-20T02:53:57;130.60;;;43.47;;
63801;SDS011;49949;43.060;25.624;2023-12-20T02:56:23;73.55;;;32.03;;
63801;SDS011;49949;43.060;25.624;2023-12-20T02:58:48;56.45;;;26.73;;
63801;SDS011;49949;43.060;25.624;2023-12-20T03:01:14;89.50;;;38.08;;
63801;SDS011;49949;43.060;25.624;2023-12-20T03:03:40;96.32;;;37.20;;
63801;SDS011;49949;43.060;25.624;2023-12-20T03:06:05;81.85;;;34.92;;
63801;SDS011;49949;43.060;25.624;2023-12-20T03:08:31;85.95;;;36.83;;
63801;SDS011;49949;43.060;25.624;2023-12-20T03:10:58;82.00;;;34.63;;
63801;SDS011;49949;43.060;25.624;2023-12-20T03:13:24;87.03;;;37.63;;
63801;SDS011;49949;43.060;25.624;2023-12-20T03:15:50;80.32;;;34.22;;
63801;SDS011;49949;43.060;25.624;2023-12-20T03:18:16;85.40;;;36.42;;
63801;SDS011;49949;43.060;25.624;2023-12-20T03:20:43;75.55;;;37.35;;
63801;SDS011;49949;43.060;25.624;2023-12-20T03:23:08;85.72;;;36.83;;
63801;SDS011;49949;43.060;25.624;2023-12-20T03:25:34;78.40;;;36.95;;
63801;SDS011;49949;43.060;25.624;2023-12-20T03:28:00;79.82;;;35.92;;
63801;SDS011;49949;43.060;25.624;2023-12-20T03:30:25;78.95;;;36.15;;
63801;SDS011;49949;43.060;25.624;2023-12-20T03:32:51;79.70;;;36.28;;
63801;SDS011;49949;43.060;25.624;2023-12-20T03:35:17;71.50;;;33.75;;
63801;SDS011;49949;43.060;25.624;2023-12-20T03:37:42;70.22;;;33.47;;
63801;SDS011;49949;43.060;25.624;2023-12-20T03:40:08;75.47;;;28.95;;
63801;SDS011;49949;43.060;25.624;2023-12-20T03:42:34;56.85;;;27.27;;
63801;SDS011;49949;43.060;25.624;2023-12-20T03:45:00;60.63;;;27.40;;
63801;SDS011;49949;43.060;25.624;2023-12-20T03:47:26;61.65;;;29.23;;
63801;SDS011;49949;43.060;25.624;2023-12-20T03:49:52;82.75;;;36.05;;
63801;SDS011;49949;43.060;25.624;2023-12-20T03:52:18;78.22;;;36.13;;
63801;SDS011;49949;43.060;25.624;2023-12-20T03:54:44;79.80;;;36.03;;
63801;SDS011;49949;43.060;25.624;2023-12-20T03:57:09;77.95;;;34.22;;
63801;SDS011;49949;43.060;25.624;2023-12-20T03:59:36;69.20;;;33.03;;
63801;SDS011;49949;43.060;25.624;2023-12-20T04:02:04;77.90;;;36.53;;
63801;SDS011;49949;43.060;25.624;2023-12-20T04:04:30;72.00;;;34.33;;
63801;SDS011;49949;43.060;25.624;2023-12-20T04:06:55;72.35;;;33.05;;
63801;SDS011;49949;43.060;25.624;2023-12-20T04:09:21;73.20;;;32.53;;
63801;SDS011;49949;43.060;25.624;2023-12-20T04:11:47;75.65;;;31.25;;
63801;SDS011;49949;43.060;25.624;2023-12-20T04:14:12;77.60;;;32.08;;
63801;SDS011;49949;43.060;25.624;2023-12-20T04:16:38;66.82;;;32.90;;
63801;SDS011;49949;43.060;25.624;2023-12-20T04:19:04;76.50;;;32.90;;
63801;SDS011;49949;43.060;25.624;2023-12-20T04:21:30;69.45;;;32.70;;
63801;SDS011;49949;43.060;25.624;2023-12-20T04:23:55;68.63;;;33.28;;
63801;SDS011;49949;43.060;25.624;2023-12-20T04:26:21;80.38;;;37.15;;
63801;SDS011;49949;43.060;25.624;2023-12-20T04:28:47;64.20;;;30.70;;
63801;SDS011;49949;43.060;25.624;2023-12-20T04:31:13;68.22;;;33.25;;
63801;SDS011;49949;43.060;25.624;2023-12-20T04:33:38;72.85;;;36.13;;
63801;SDS011;49949;43.060;25.624;2023-12-20T04:36:04;76.25;;;35.35;;
63801;SDS011;49949;43.060;25.624;2023-12-20T04:38:30;65.78;;;31.80;;
63801;SDS011;49949;43.060;25.624;2023-12-20T04:40:56;89.63;;;35.08;;
63801;SDS011;49949;43.060;25.624;2023-12-20T04:43:21;78.55;;;33.85;;
63801;SDS011;49949;43.060;25.624;2023-12-20T04:45:47;68.45;;;32.40;;
63801;SDS011;49949;43.060;25.624;2023-12-20T04:48:13;69.20;;;30.85;;
63801;SDS011;49949;43.060;25.624;2023-12-20T04:50:39;65.35;;;29.08;;
63801;SDS011;49949;43.060;25.624;2023-12-20T04:53:04;69.57;;;29.08;;
63801;SDS011;49949;43.060;25.624;2023-12-20T04:55:30;57.22;;;28.83;;
63801;SDS011;49949;43.060;25.624;2023-12-20T04:57:56;64.53;;;29.63;;
63801;SDS011;49949;43.060;25.624;2023-12-20T05:00:21;84.47;;;37.42;;
63801;SDS011;49949;43.060;25.624;2023-12-20T05:02:47;71.43;;;30.70;;
63801;SDS011;49949;43.060;25.624;2023-12-20T05:05:13;77.05;;;30.65;;
63801;SDS011;49949;43.060;25.624;2023-12-20T05:07:40;64.13;;;28.42;;
63801;SDS011;49949;43.060;25.624;2023-12-20T05:10:06;73.70;;;27.95;;
63801;SDS011;49949;43.060;25.624;2023-12-20T05:12:33;67.47;;;29.80;;
63801;SDS011;49949;43.060;25.624;2023-12-20T05:14:59;81.25;;;32.38;;
63801;SDS011;49949;43.060;25.624;2023-12-20T05:17:25;74.82;;;30.75;;
63801;SDS011;49949;43.060;25.624;2023-12-20T05:19:51;65.90;;;29.00;;
63801;SDS011;49949;43.060;25.624;2023-12-20T05:22:17;72.53;;;29.42;;
63801;SDS011;49949;43.060;25.624;2023-12-20T05:24:46;70.85;;;31.02;;
63801;SDS011;49949;43.060;25.624;2023-12-20T05:27:12;71.07;;;31.05;;
63801;SDS011;49949;43.060;25.624;2023-12-20T05:29:38;77.95;;;30.20;;
63801;SDS011;49949;43.060;25.624;2023-12-20T05:32:03;73.43;;;30.08;;
63801;SDS011;49949;43.060;25.624;2023-12-20T05:34:30;70.82;;;28.90;;
63801;SDS011;49949;43.060;25.624;2023-12-20T05:36:57;71.82;;;30.27;;
63801;SDS011;49949;43.060;25.624;2023-12-20T05:39:23;77.82;;;29.15;;
63801;SDS011;49949;43.060;25.624;2023-12-20T05:41:49;68.53;;;28.75;;
63801;SDS011;49949;43.060;25.624;2023-12-20T05:44:14;60.95;;;26.20;;
63801;SDS011;49949;43.060;25.624;2023-12-20T05:46:40;64.72;;;26.08;;
63801;SDS011;49949;43.060;25.624;2023-12-20T05:49:06;70.70;;;29.17;;
63801;SDS011;49949;43.060;25.624;2023-12-20T05:51:32;57.63;;;25.85;;
63801;SDS011;49949;43.060;25.624;2023-12-20T05:53:58;58.47;;;28.58;;
63801;SDS011;49949;43.060;25.624;2023-12-20T05:56:24;60.35;;;28.70;;
63801;SDS011;49949;43.060;25.624;2023-12-20T05:58:49;77.68;;;27.58;;
63801;SDS011;49949;43.060;25.624;2023-12-20T06:01:15;87.45;;;28.13;;
63801;SDS011;49949;43.060;25.624;2023-12-20T06:03:44;61.38;;;29.58;;
63801;SDS011;49949;43.060;25.624;2023-12-20T06:06:11;88.13;;;29.48;;
63801;SDS011;49949;43.060;25.624;2023-12-20T06:08:38;82.35;;;28.88;;
63801;SDS011;49949;43.060;25.624;2023-12-20T06:11:04;64.72;;;27.40;;
63801;SDS011;49949;43.060;25.624;2023-12-20T06:13:30;67.35;;;26.98;;
63801;SDS011;49949;43.060;25.624;2023-12-20T06:15:56;81.20;;;27.63;;
63801;SDS011;49949;43.060;25.624;2023-12-20T06:18:22;62.80;;;27.52;;
63801;SDS011;49949;43.060;25.624;2023-12-20T06:20:48;61.42;;;26.98;;
63801;SDS011;49949;43.060;25.624;2023-12-20T06:23:14;69.40;;;28.33;;
63801;SDS011;49949;43.060;25.624;2023-12-20T06:25:39;60.80;;;28.17;;
63801;SDS011;49949;43.060;25.624;2023-12-20T06:28:05;59.70;;;26.52;;
63801;SDS011;49949;43.060;25.624;2023-12-20T06:30:31;61.00;;;28.05;;
63801;SDS011;49949;43.060;25.624;2023-12-20T06:32:58;62.53;;;29.23;;
63801;SDS011;49949;43.060;25.624;2023-12-20T06:35:24;77.25;;;31.40;;
63801;SDS011;49949;43.060;25.624;2023-12-20T06:37:50;71.38;;;31.48;;
63801;SDS011;49949;43.060;25.624;2023-12-20T06:40:15;65.80;;;30.02;;
63801;SDS011;49949;43.060;25.624;2023-12-20T06:42:41;65.00;;;29.92;;
63801;SDS011;49949;43.060;25.624;2023-12-20T06:45:07;75.55;;;33.15;;
63801;SDS011;49949;43.060;25.624;2023-12-20T06:47:33;78.85;;;33.83;;
63801;SDS011;49949;43.060;25.624;2023-12-20T06:49:59;71.00;;;31.40;;
63801;SDS011;49949;43.060;25.624;2023-12-20T06:52:24;67.75;;;30.38;;
63801;SDS011;49949;43.060;25.624;2023-12-20T06:54:50;77.22;;;35.78;;
63801;SDS011;49949;43.060;25.624;2023-12-20T06:57:16;65.15;;;32.33;;
63801;SDS011;49949;43.060;25.624;2023-12-20T06:59:41;63.70;;;35.15;;
63801;SDS011;49949;43.060;25.624;2023-12-20T07:02:08;66.95;;;31.45;;
63801;SDS011;49949;43.060;25.624;2023-12-20T07:04:34;56.15;;;27.88;;
63801;SDS011;49949;43.060;25.624;2023-12-20T07:07:03;59.20;;;26.65;;
63801;SDS011;49949;43.060;25.624;2023-12-20T07:09:29;58.90;;;27.70;;
63801;SDS011;49949;43.060;25.624;2023-12-20T07:11:55;74.22;;;33.20;;
63801;SDS011;49949;43.060;25.624;2023-12-20T07:14:20;93.60;;;36.40;;
63801;SDS011;49949;43.060;25.624;2023-12-20T07:16:46;74.55;;;33.58;;
63801;SDS011;49949;43.060;25.624;2023-12-20T07:19:12;94.13;;;38.03;;
63801;SDS011;49949;43.060;25.624;2023-12-20T07:21:38;97.10;;;41.35;;
63801;SDS011;49949;43.060;25.624;2023-12-20T07:24:03;95.13;;;43.30;;
63801;SDS011;49949;43.060;25.624;2023-12-20T07:26:29;106.05;;;48.83;;
63801;SDS011;49949;43.060;25.624;2023-12-20T07:28:55;124.40;;;53.30;;
63801;SDS011;49949;43.060;25.624;2023-12-20T07:31:21;131.88;;;53.55;;
63801;SDS011;49949;43.060;25.624;2023-12-20T07:33:46;134.98;;;52.97;;
63801;SDS011;49949;43.060;25.624;2023-12-20T07:36:12;105.97;;;50.22;;
63801;SDS011;49949;43.060;25.624;2023-12-20T07:38:38;129.13;;;59.08;;
63801;SDS011;49949;43.060;25.624;2023-12-20T07:41:04;134.80;;;64.38;;
63801;SDS011;49949;43.060;25.624;2023-12-20T07:43:30;140.48;;;62.25;;
63801;SDS011;49949;43.060;25.624;2023-12-20T07:45:57;139.48;;;62.22;;
63801;SDS011;49949;43.060;25.624;2023-12-20T07:48:22;131.50;;;60.33;;
63801;SDS011;49949;43.060;25.624;2023-12-20T07:50:48;118.72;;;56.33;;
63801;SDS011;49949;43.060;25.624;2023-12-20T07:53:14;115.78;;;51.30;;
63801;SDS011;49949;43.060;25.624;2023-12-20T07:55:39;110.75;;;52.88;;
63801;SDS011;49949;43.060;25.624;2023-12-20T07:58:05;101.10;;;48.25;;
63801;SDS011;49949;43.060;25.624;2023-12-20T08:00:31;115.50;;;51.70;;
63801;SDS011;49949;43.060;25.624;2023-12-20T08:02:56;103.82;;;48.38;;
63801;SDS011;49949;43.060;25.624;2023-12-20T08:05:22;83.50;;;43.67;;
63801;SDS011;49949;43.060;25.624;2023-12-20T08:07:48;73.47;;;38.00;;
63801;SDS011;49949;43.060;25.624;2023-12-20T08:10:13;74.07;;;35.00;;
63801;SDS011;49949;43.060;25.624;2023-12-20T08:12:39;60.60;;;31.05;;
63801;SDS011;49949;43.060;25.624;2023-12-20T08:15:05;68.68;;;34.05;;
63801;SDS011;49949;43.060;25.624;2023-12-20T08:17:31;85.82;;;38.15;;
63801;SDS011;49949;43.060;25.624;2023-12-20T08:19:57;87.75;;;45.08;;
63801;SDS011;49949;43.060;25.624;2023-12-20T08:22:22;116.50;;;54.15;;
63801;SDS011;49949;43.060;25.624;2023-12-20T08:24:48;87.22;;;39.55;;
63801;SDS011;49949;43.060;25.624;2023-12-20T08:27:14;82.00;;;41.95;;
63801;SDS011;49949;43.060;25.624;2023-12-20T08:29:40;114.57;;;53.65;;
63801;SDS011;49949;43.060;25.624;2023-12-20T08:32:05;92.95;;;41.63;;
63801;SDS011;49949;43.060;25.624;2023-12-20T08:34:31;58.10;;;29.35;;
63801;SDS011;49949;43.060;25.624;2023-12-20T08:36:57;76.95;;;25.90;;
63801;SDS011;49949;43.060;25.624;2023-12-20T08:39:22;48.05;;;22.15;;
63801;SDS011;49949;43.060;25.624;2023-12-20T08:41:48;44.28;;;23.23;;
63801;SDS011;49949;43.060;25.624;2023-12-20T08:44:14;66.03;;;24.23;;
63801;SDS011;49949;43.060;25.624;2023-12-20T08:46:40;67.50;;;25.75;;
63801;SDS011;49949;43.060;25.624;2023-12-20T08:49:05;73.38;;;25.67;;
63801;SDS011;49949;43.060;25.624;2023-12-20T08:51:32;54.47;;;25.63;;
63801;SDS011;49949;43.060;25.624;2023-12-20T08:53:58;46.45;;;24.58;;
63801;SDS011;49949;43.060;25.624;2023-12-20T08:56:24;38.85;;;22.92;;
63801;SDS011;49949;43.060;25.624;2023-12-20T08:58:50;43.80;;;24.60;;
63801;SDS011;49949;43.060;25.624;2023-12-20T09:01:15;57.20;;;27.63;;
63801;SDS011;49949;43.060;25.624;2023-12-20T09:03:41;62.78;;;33.05;;
63801;SDS011;49949;43.060;25.624;2023-12-20T09:06:07;72.85;;;39.83;;
63801;SDS011;49949;43.060;25.624;2023-12-20T09:08:32;88.72;;;47.20;;
63801;SDS011;49949;43.060;25.624;2023-12-20T09:10:59;82.82;;;47.67;;
63801;SDS011;49949;43.060;25.624;2023-12-20T09:13:25;83.22;;;49.80;;
63801;SDS011;49949;43.060;25.624;2023-12-20T09:15:54;118.45;;;49.80;;
63801;SDS011;49949;43.060;25.624;2023-12-20T09:18:21;82.57;;;49.13;;
63801;SDS011;49949;43.060;25.624;2023-12-20T09:20:46;93.90;;;55.38;;
63801;SDS011;49949;43.060;25.624;2023-12-20T09:23:12;99.95;;;54.08;;
63801;SDS011;49949;43.060;25.624;2023-12-20T09:25:38;79.32;;;48.58;;
63801;SDS011;49949;43.060;25.624;2023-12-20T09:28:03;82.68;;;44.97;;
63801;SDS011;49949;43.060;25.624;2023-12-20T09:30:29;79.47;;;47.20;;
63801;SDS011;49949;43.060;25.624;2023-12-20T09:32:56;74.80;;;44.25;;
63801;SDS011;49949;43.060;25.624;2023-12-20T09:35:22;64.80;;;37.67;;
63801;SDS011;49949;43.060;25.624;2023-12-20T09:37:48;67.35;;;30.15;;
63801;SDS011;49949;43.060;25.624;2023-12-20T09:40:14;57.25;;;32.67;;
63801;SDS011;49949;43.060;25.624;2023-12-20T09:42:58;74.82;;;24.40;;
63801;SDS011;49949;43.060;25.624;2023-12-20T09:45:28;36.25;;;19.10;;
63801;SDS011;49949;43.060;25.624;2023-12-20T09:47:56;28.73;;;15.88;;
63801;SDS011;49949;43.060;25.624;2023-12-20T09:50:23;45.95;;;13.18;;
63801;SDS011;49949;43.060;25.624;2023-12-20T09:52:52;20.67;;;11.10;;
63801;SDS011;49949;43.060;25.624;2023-12-20T09:55:19;17.80;;;11.50;;
63801;SDS011;49949;43.060;25.624;2023-12-20T09:57:48;45.28;;;13.70;;
63801;SDS011;49949;43.060;25.624;2023-12-20T10:00:14;21.35;;;9.55;;
63801;SDS011;49949;43.060;25.624;2023-12-20T10:03:00;17.63;;;8.93;;
63801;SDS011;49949;43.060;25.624;2023-12-20T10:05:30;47.15;;;9.68;;
63801;SDS011;49949;43.060;25.624;2023-12-20T10:07:57;20.33;;;8.68;;
63801;SDS011;49949;43.060;25.624;2023-12-20T10:10:24;59.38;;;9.23;;
63801;SDS011;49949;43.060;25.624;2023-12-20T10:15:35;14.98;;;6.82;;
63801;SDS011;49949;43.060;25.624;2023-12-20T10:18:02;10.77;;;6.03;;
63801;SDS011;49949;43.060;25.624;2023-12-20T10:20:29;464.48;;;26.17;;
63801;SDS011;49949;43.060;25.624;2023-12-20T10:22:55;92.40;;;9.52;;
63801;SDS011;49949;43.060;25.624;2023-12-20T10:25:22;15.45;;;6.65;;
63801;SDS011;49949;43.060;25.624;2023-12-20T10:27:49;25.63;;;7.35;;
63801;SDS011;49949;43.060;25.624;2023-12-20T10:30:15;64.00;;;8.13;;
63801;SDS011;49949;43.060;25.624;2023-12-20T10:32:41;22.15;;;5.70;;
63801;SDS011;49949;43.060;25.624;2023-12-20T10:35:08;26.70;;;6.90;;
63801;SDS011;49949;43.060;25.624;2023-12-20T10:37:35;12.95;;;5.95;;
63801;SDS011;49949;43.060;25.624;2023-12-20T10:40:02;9.32;;;6.65;;
63801;SDS011;49949;43.060;25.624;2023-12-20T10:42:30;11.10;;;5.72;;
63801;SDS011;49949;43.060;25.624;2023-12-20T10:44:59;16.52;;;6.50;;
63801;SDS011;49949;43.060;25.624;2023-12-20T10:47:25;53.42;;;9.98;;
63801;SDS011;49949;43.060;25.624;2023-12-20T10:49:52;47.90;;;13.23;;
63801;SDS011;49949;43.060;25.624;2023-12-20T10:52:18;28.73;;;14.57;;
63801;SDS011;49949;43.060;25.624;2023-12-20T10:54:47;30.33;;;14.18;;
63801;SDS011;49949;43.060;25.624;2023-12-20T10:57:13;21.15;;;12.63;;
63801;SDS011;49949;43.060;25.624;2023-12-20T10:59:41;21.83;;;10.52;;
63801;SDS011;49949;43.060;25.624;2023-12-20T11:02:10;16.83;;;9.82;;
63801;SDS011;49949;43.060;25.624;2023-12-20T11:07:23;16.92;;;9.05;;
63801;SDS011;49949;43.060;25.624;2023-12-20T11:09:58;21.65;;;11.63;;
63801;SDS011;49949;43.060;25.624;2023-12-20T11:15:25;23.85;;;15.35;;
63801;SDS011;49949;43.060;25.624;2023-12-20T11:17:55;30.38;;;13.48;;
63801;SDS011;49949;43.060;25.624;2023-12-20T11:20:22;19.75;;;12.32;;
63801;SDS011;49949;43.060;25.624;2023-12-20T11:22:52;34.67;;;12.40;;
63801;SDS011;49949;43.060;25.624;2023-12-20T11:25:18;22.33;;;11.63;;
63801;SDS011;49949;43.060;25.624;2023-12-20T11:27:44;24.98;;;12.00;;
63801;SDS011;49949;43.060;25.624;2023-12-20T11:30:46;28.55;;;12.52;;
63801;SDS011;49949;43.060;25.624;2023-12-20T11:33:15;21.23;;;12.40;;
63801;SDS011;49949;43.060;25.624;2023-12-20T11:35:41;28.92;;;12.25;;
63801;SDS011;49949;43.060;25.624;2023-12-20T11:38:10;20.33;;;11.35;;
63801;SDS011;49949;43.060;25.624;2023-12-20T11:40:36;47.70;;;12.15;;
63801;SDS011;49949;43.060;25.624;2023-12-20T11:43:02;28.15;;;12.88;;
63801;SDS011;49949;43.060;25.624;2023-12-20T11:45:30;76.43;;;15.75;;
63801;SDS011;49949;43.060;25.624;2023-12-20T11:47:57;33.40;;;11.88;;
63801;SDS011;49949;43.060;25.624;2023-12-20T11:50:23;19.02;;;12.55;;
63801;SDS011;49949;43.060;25.624;2023-12-20T11:52:49;24.05;;;12.13;;
63801;SDS011;49949;43.060;25.624;2023-12-20T11:55:16;88.13;;;15.15;;
63801;SDS011;49949;43.060;25.624;2023-12-20T11:57:42;26.35;;;11.45;;
63801;SDS011;49949;43.060;25.624;2023-12-20T12:00:09;30.60;;;11.05;;
63801;SDS011;49949;43.060;25.624;2023-12-20T12:02:35;28.08;;;11.73;;
63801;SDS011;49949;43.060;25.624;2023-12-20T12:05:01;24.25;;;10.88;;
63801;SDS011;49949;43.060;25.624;2023-12-20T12:07:30;46.25;;;11.55;;
63801;SDS011;49949;43.060;25.624;2023-12-20T12:09:55;39.58;;;12.45;;
63801;SDS011;49949;43.060;25.624;2023-12-20T12:12:21;56.80;;;12.75;;
63801;SDS011;49949;43.060;25.624;2023-12-20T12:14:47;28.75;;;11.13;;
63801;SDS011;49949;43.060;25.624;2023-12-20T12:17:14;33.58;;;11.25;;
63801;SDS011;49949;43.060;25.624;2023-12-20T12:19:41;47.25;;;12.50;;
63801;SDS011;49949;43.060;25.624;2023-12-20T12:22:07;24.52;;;11.18;;
63801;SDS011;49949;43.060;25.624;2023-12-20T12:24:38;35.85;;;11.10;;
63801;SDS011;49949;43.060;25.624;2023-12-20T12:27:08;31.08;;;11.32;;
63801;SDS011;49949;43.060;25.624;2023-12-20T12:29:34;39.70;;;12.38;;
63801;SDS011;49949;43.060;25.624;2023-12-20T12:32:00;84.07;;;14.43;;
63801;SDS011;49949;43.060;25.624;2023-12-20T12:34:29;58.58;;;12.18;;
63801;SDS011;49949;43.060;25.624;2023-12-20T12:36:56;22.17;;;10.98;;
63801;SDS011;49949;43.060;25.624;2023-12-20T12:39:23;20.00;;;10.13;;
63801;SDS011;49949;43.060;25.624;2023-12-20T12:41:52;46.92;;;10.77;;
63801;SDS011;49949;43.060;25.624;2023-12-20T12:44:18;28.17;;;10.02;;
63801;SDS011;49949;43.060;25.624;2023-12-20T12:46:47;25.65;;;10.10;;
63801;SDS011;49949;43.060;25.624;2023-12-20T12:49:16;34.75;;;10.82;;
63801;SDS011;49949;43.060;25.624;2023-12-20T12:51:42;72.10;;;25.38;;
63801;SDS011;49949;43.060;25.624;2023-12-20T12:54:08;52.85;;;19.73;;
63801;SDS011;49949;43.060;25.624;2023-12-20T12:56:34;20.17;;;11.02;;
63801;SDS011;49949;43.060;25.624;2023-12-20T12:59:03;25.25;;;10.00;;
63801;SDS011;49949;43.060;25.624;2023-12-20T13:01:30;21.38;;;10.70;;
63801;SDS011;49949;43.060;25.624;2023-12-20T13:03:56;140.15;;;17.33;;
63801;SDS011;49949;43.060;25.624;2023-12-20T13:06:22;173.48;;;17.23;;
63801;SDS011;49949;43.060;25.624;2023-12-20T13:08:48;125.22;;;15.15;;
63801;SDS011;49949;43.060;25.624;2023-12-20T13:11:14;104.53;;;13.63;;
63801;SDS011;49949;43.060;25.624;2023-12-20T13:13:40;122.28;;;13.68;;
63801;SDS011;49949;43.060;25.624;2023-12-20T13:16:05;144.90;;;14.38;;
63801;SDS011;49949;43.060;25.624;2023-12-20T13:18:31;69.40;;;10.10;;
63801;SDS011;49949;43.060;25.624;2023-12-20T13:20:57;36.38;;;9.70;;
63801;SDS011;49949;43.060;25.624;2023-12-20T13:23:23;56.50;;;8.85;;
63801;SDS011;49949;43.060;25.624;2023-12-20T13:25:48;68.68;;;9.07;;
63801;SDS011;49949;43.060;25.624;2023-12-20T13:28:14;28.45;;;9.85;;
63801;SDS011;49949;43.060;25.624;2023-12-20T13:30:40;183.85;;;13.70;;
63801;SDS011;49949;43.060;25.624;2023-12-20T13:33:06;38.08;;;9.15;;
63801;SDS011;49949;43.060;25.624;2023-12-20T13:35:32;143.70;;;11.98;;
63801;SDS011;49949;43.060;25.624;2023-12-20T13:37:59;68.35;;;9.85;;
63801;SDS011;49949;43.060;25.624;2023-12-20T13:40:25;34.58;;;7.55;;
63801;SDS011;49949;43.060;25.624;2023-12-20T13:42:51;42.83;;;8.35;;
63801;SDS011;49949;43.060;25.624;2023-12-20T13:45:17;64.50;;;9.27;;
63801;SDS011;49949;43.060;25.624;2023-12-20T13:47:43;643.08;;;40.13;;
63801;SDS011;49949;43.060;25.624;2023-12-20T13:50:09;115.57;;;12.10;;
63801;SDS011;49949;43.060;25.624;2023-12-20T13:52:34;35.50;;;8.98;;
63801;SDS011;49949;43.060;25.624;2023-12-20T13:55:01;238.02;;;25.38;;
63801;SDS011;49949;43.060;25.624;2023-12-20T13:57:27;86.78;;;13.73;;
63801;SDS011;49949;43.060;25.624;2023-12-20T13:59:54;86.25;;;18.48;;
63801;SDS011;49949;43.060;25.624;2023-12-20T14:02:22;239.43;;;26.50;;
63801;SDS011;49949;43.060;25.624;2023-12-20T14:04:48;49.95;;;11.50;;
63801;SDS011;49949;43.060;25.624;2023-12-20T14:07:14;144.63;;;17.98;;
63801;SDS011;49949;43.060;25.624;2023-12-20T14:09:40;76.70;;;13.93;;
63801;SDS011;49949;43.060;25.624;2023-12-20T14:12:10;122.90;;;15.50;;